sensor_id;sensor_type;location;lat;lon;timestamp;pressure;altitude;pressure_sealevel;temperature;humidity
79752;BME280;69234;47.446;21.636;2023-06-19T00:00:06;100467.25;;;15.36;88.65
79752;BME280;69234;47.446;21.636;2023-06-19T00:00:43;100489.81;;;15.45;88.46
79752;BME280;69234;47.446;21.636;2023-06-19T00:01:14;100482.88;;;15.42;87.26
79752;BME280;69234;47.446;21.636;2023-06-19T00:01:45;100479.78;;;15.37;88.50
79752;BME280;69234;47.446;21.636;2023-06-19T00:02:16;100483.88;;;15.41;88.33
79752;BME280;69234;47.446;21.636;2023-06-19T00:02:47;100474.84;;;15.33;87.40
79752;BME280;69234;47.446;21.636;2023-06-19T00:03:18;100479.09;;;15.35;88.10
79752;BME280;69234;47.446;21.636;2023-06-19T00:03:49;100474.00;;;15.32;87.96
79752;BME280;69234;47.446;21.636;2023-06-19T00:04:20;100479.78;;;15.37;87.85
79752;BME280;69234;47.446;21.636;2023-06-19T00:04:51;100476.53;;;15.34;87.97
79752;BME280;69234;47.446;21.636;2023-06-19T00:05:22;100474.00;;;15.32;87.75
79752;BME280;69234;47.446;21.636;2023-06-19T00:05:54;100489.75;;;15.37;88.71
79752;BME280;69234;47.446;21.636;2023-06-19T00:06:25;100480.97;;;15.35;88.11
79752;BME280;69234;47.446;21.636;2023-06-19T00:06:56;100482.47;;;15.37;88.55
79752;BME280;69234;47.446;21.636;2023-06-19T00:07:26;100485.34;;;15.36;87.65
79752;BME280;69234;47.446;21.636;2023-06-19T00:07:57;100476.19;;;15.29;88.81
79752;BME280;69234;47.446;21.636;2023-06-19T00:08:28;100472.75;;;15.27;88.30
79752;BME280;69234;47.446;21.636;2023-06-19T00:08:59;100472.63;;;15.28;88.11
79752;BME280;69234;47.446;21.636;2023-06-19T00:09:30;100471.78;;;15.28;88.04
79752;BME280;69234;47.446;21.636;2023-06-19T00:10:01;100470.06;;;15.27;88.42
79752;BME280;69234;47.446;21.636;2023-06-19T00:10:33;100481.72;;;15.27;88.72
79752;BME280;69234;47.446;21.636;2023-06-19T00:11:04;100479.38;;;15.24;89.21
79752;BME280;69234;47.446;21.636;2023-06-19T00:11:35;100484.44;;;15.27;88.51
79752;BME280;69234;47.446;21.636;2023-06-19T00:12:06;100472.41;;;15.21;88.43
79752;BME280;69234;47.446;21.636;2023-06-19T00:12:37;100483.81;;;15.33;88.54
79752;BME280;69234;47.446;21.636;2023-06-19T00:13:08;100472.25;;;15.23;88.70
79752;BME280;69234;47.446;21.636;2023-06-19T00:13:39;100482.75;;;15.26;89.14
79752;BME280;69234;47.446;21.636;2023-06-19T00:14:10;100483.28;;;15.30;88.93
79752;BME280;69234;47.446;21.636;2023-06-19T00:14:41;100480.88;;;15.27;88.65
79752;BME280;69234;47.446;21.636;2023-06-19T00:15:13;100487.00;;;15.29;88.85
79752;BME280;69234;47.446;21.636;2023-06-19T00:15:44;100491.56;;;15.28;87.88
79752;BME280;69234;47.446;21.636;2023-06-19T00:16:15;100476.28;;;15.19;88.06
79752;BME280;69234;47.446;21.636;2023-06-19T00:16:46;100483.38;;;15.20;88.22
79752;BME280;69234;47.446;21.636;2023-06-19T00:17:17;100483.38;;;15.20;88.66
79752;BME280;69234;47.446;21.636;2023-06-19T00:17:48;100499.28;;;15.23;88.13
79752;BME280;69234;47.446;21.636;2023-06-19T00:18:19;100493.88;;;15.23;88.20
79752;BME280;69234;47.446;21.636;2023-06-19T00:18:51;100480.31;;;15.15;88.54
79752;BME280;69234;47.446;21.636;2023-06-19T00:19:26;100484.88;;;15.14;88.53
79752;BME280;69234;47.446;21.636;2023-06-19T00:19:57;100491.97;;;15.15;88.59
79752;BME280;69234;47.446;21.636;2023-06-19T00:20:28;100498.22;;;15.16;88.52
79752;BME280;69234;47.446;21.636;2023-06-19T00:20:59;100498.22;;;15.16;88.56
79752;BME280;69234;47.446;21.636;2023-06-19T00:21:30;100478.41;;;15.07;89.25
79752;BME280;69234;47.446;21.636;2023-06-19T00:22:01;100491.13;;;15.15;88.50
79752;BME280;69234;47.446;21.636;2023-06-19T00:22:32;100482.78;;;15.08;89.75
79752;BME280;69234;47.446;21.636;2023-06-19T00:23:03;100493.13;;;15.13;89.57
79752;BME280;69234;47.446;21.636;2023-06-19T00:23:34;100486.34;;;15.09;89.50
79752;BME280;69234;47.446;21.636;2023-06-19T00:24:05;100484.66;;;15.08;89.50
79752;BME280;69234;47.446;21.636;2023-06-19T00:24:38;100489.59;;;15.12;90.04
79752;BME280;69234;47.446;21.636;2023-06-19T00:25:09;100493.13;;;15.13;89.64
79752;BME280;69234;47.446;21.636;2023-06-19T00:25:41;100475.00;;;15.05;89.46
79752;BME280;69234;47.446;21.636;2023-06-19T00:26:13;100483.81;;;15.07;88.99
79752;BME280;69234;47.446;21.636;2023-06-19T00:26:45;100489.75;;;15.11;88.88
79752;BME280;69234;47.446;21.636;2023-06-19T00:27:16;100498.41;;;15.14;89.61
79752;BME280;69234;47.446;21.636;2023-06-19T00:27:47;100495.69;;;15.14;88.70
79752;BME280;69234;47.446;21.636;2023-06-19T00:28:18;100492.28;;;15.12;88.67
79752;BME280;69234;47.446;21.636;2023-06-19T00:28:53;100490.75;;;15.10;89.54
79752;BME280;69234;47.446;21.636;2023-06-19T00:29:24;100482.78;;;15.08;88.75
79752;BME280;69234;47.446;21.636;2023-06-19T00:29:58;100484.78;;;15.06;89.76
79752;BME280;69234;47.446;21.636;2023-06-19T00:30:32;100471.56;;;15.03;89.45
79752;BME280;69234;47.446;21.636;2023-06-19T00:31:03;100486.66;;;15.06;89.62
79752;BME280;69234;47.446;21.636;2023-06-19T00:31:37;100495.16;;;15.11;89.69
79752;BME280;69234;47.446;21.636;2023-06-19T00:32:08;100494.16;;;15.12;89.33
79752;BME280;69234;47.446;21.636;2023-06-19T00:32:39;100483.63;;;15.09;89.82
79752;BME280;69234;47.446;21.636;2023-06-19T00:33:17;100476.84;;;15.05;89.17
79752;BME280;69234;47.446;21.636;2023-06-19T00:33:49;100476.69;;;15.06;89.61
79752;BME280;69234;47.446;21.636;2023-06-19T00:34:21;100479.38;;;15.06;89.07
79752;BME280;69234;47.446;21.636;2023-06-19T00:34:55;100483.81;;;15.07;88.86
79752;BME280;69234;47.446;21.636;2023-06-19T00:35:25;100494.31;;;15.10;88.85
79752;BME280;69234;47.446;21.636;2023-06-19T00:35:58;100481.56;;;15.03;88.90
79752;BME280;69234;47.446;21.636;2023-06-19T00:36:29;100494.47;;;15.09;88.64
79752;BME280;69234;47.446;21.636;2023-06-19T00:37:00;100481.03;;;14.99;88.94
79752;BME280;69234;47.446;21.636;2023-06-19T00:37:31;100487.13;;;15.01;89.21
79752;BME280;69234;47.446;21.636;2023-06-19T00:38:05;100494.53;;;14.99;89.61
79752;BME280;69234;47.446;21.636;2023-06-19T00:38:37;100502.03;;;15.05;89.31
79752;BME280;69234;47.446;21.636;2023-06-19T00:39:09;100489.34;;;15.06;90.13
79752;BME280;69234;47.446;21.636;2023-06-19T00:39:40;100492.06;;;15.06;89.53
79752;BME280;69234;47.446;21.636;2023-06-19T00:40:33;100493.56;;;15.00;89.01
79752;BME280;69234;47.446;21.636;2023-06-19T00:41:05;100491.22;;;15.05;89.14
79752;BME280;69234;47.446;21.636;2023-06-19T00:41:36;100487.81;;;15.03;89.92
79752;BME280;69234;47.446;21.636;2023-06-19T00:42:08;100495.63;;;15.06;89.66
79752;BME280;69234;47.446;21.636;2023-06-19T00:42:39;100496.81;;;15.04;89.00
79752;BME280;69234;47.446;21.636;2023-06-19T00:43:10;100486.75;;;14.96;89.29
79752;BME280;69234;47.446;21.636;2023-06-19T00:43:41;100492.00;;;14.97;90.12
79752;BME280;69234;47.446;21.636;2023-06-19T00:44:12;100485.75;;;14.97;89.96
79752;BME280;69234;47.446;21.636;2023-06-19T00:44:43;100490.84;;;15.00;89.85
79752;BME280;69234;47.446;21.636;2023-06-19T00:45:14;100482.34;;;14.95;89.94
79752;BME280;69234;47.446;21.636;2023-06-19T00:45:45;100485.59;;;14.98;90.41
79752;BME280;69234;47.446;21.636;2023-06-19T00:46:16;100487.63;;;14.96;89.27
79752;BME280;69234;47.446;21.636;2023-06-19T00:46:55;100483.34;;;14.94;89.80
79752;BME280;69234;47.446;21.636;2023-06-19T00:47:27;100483.34;;;14.94;90.30
79752;BME280;69234;47.446;21.636;2023-06-19T00:47:59;100479.28;;;14.90;89.79
79752;BME280;69234;47.446;21.636;2023-06-19T00:48:33;100485.59;;;14.98;90.40
79752;BME280;69234;47.446;21.636;2023-06-19T00:49:04;100485.91;;;14.95;90.01
79752;BME280;69234;47.446;21.636;2023-06-19T00:49:35;100484.19;;;14.94;90.21
79752;BME280;69234;47.446;21.636;2023-06-19T00:50:07;100474.00;;;14.88;89.45
79752;BME280;69234;47.446;21.636;2023-06-19T00:50:38;100479.81;;;14.93;89.90
79752;BME280;69234;47.446;21.636;2023-06-19T00:51:09;100496.56;;;14.97;89.27
79752;BME280;69234;47.446;21.636;2023-06-19T00:51:40;100479.41;;;14.88;89.00
79752;BME280;69234;47.446;21.636;2023-06-19T00:52:11;100482.97;;;14.89;89.20
79752;BME280;69234;47.446;21.636;2023-06-19T00:52:43;100482.81;;;14.90;89.84
79752;BME280;69234;47.446;21.636;2023-06-19T00:53:14;100481.09;;;14.89;89.94
79752;BME280;69234;47.446;21.636;2023-06-19T00:53:45;100492.94;;;14.88;89.93
79752;BME280;69234;47.446;21.636;2023-06-19T00:54:16;100491.06;;;14.89;90.05
79752;BME280;69234;47.446;21.636;2023-06-19T00:54:48;100488.00;;;14.84;89.36
79752;BME280;69234;47.446;21.636;2023-06-19T00:55:20;100488.84;;;14.84;89.63
79752;BME280;69234;47.446;21.636;2023-06-19T00:55:53;100495.63;;;14.88;89.67
79752;BME280;69234;47.446;21.636;2023-06-19T00:56:25;100488.53;;;14.87;89.61
79752;BME280;69234;47.446;21.636;2023-06-19T00:56:56;100487.16;;;14.83;90.36
79752;BME280;69234;47.446;21.636;2023-06-19T00:57:30;100502.19;;;14.86;89.90
79752;BME280;69234;47.446;21.636;2023-06-19T00:58:01;100497.66;;;14.86;89.70
79752;BME280;69234;47.446;21.636;2023-06-19T00:58:34;100495.09;;;14.85;89.60
79752;BME280;69234;47.446;21.636;2023-06-19T00:59:16;100502.38;;;14.84;90.58
79752;BME280;69234;47.446;21.636;2023-06-19T00:59:48;100485.06;;;14.77;89.52
79752;BME280;69234;47.446;21.636;2023-06-19T01:00:19;100483.06;;;14.79;89.62
79752;BME280;69234;47.446;21.636;2023-06-19T01:00:51;100496.78;;;14.86;89.84
79752;BME280;69234;47.446;21.636;2023-06-19T01:01:22;100484.38;;;14.75;90.30
79752;BME280;69234;47.446;21.636;2023-06-19T01:01:54;100498.13;;;14.82;90.74
79752;BME280;69234;47.446;21.636;2023-06-19T01:02:26;100492.03;;;14.80;90.59
79752;BME280;69234;47.446;21.636;2023-06-19T01:02:58;100483.69;;;14.73;90.00
79752;BME280;69234;47.446;21.636;2023-06-19T01:03:29;100495.59;;;14.80;90.59
79752;BME280;69234;47.446;21.636;2023-06-19T01:04:00;100497.28;;;14.81;89.62
79752;BME280;69234;47.446;21.636;2023-06-19T01:04:31;100491.19;;;14.79;90.80
79752;BME280;69234;47.446;21.636;2023-06-19T01:05:02;100490.78;;;14.74;90.11
79752;BME280;69234;47.446;21.636;2023-06-19T01:05:34;100497.44;;;14.80;90.34
79752;BME280;69234;47.446;21.636;2023-06-19T01:06:14;100501.00;;;14.80;90.06
79752;BME280;69234;47.446;21.636;2023-06-19T01:06:56;100497.28;;;14.81;90.21
79752;BME280;69234;47.446;21.636;2023-06-19T01:09:11;100495.72;;;14.79;89.83
79752;BME280;69234;47.446;21.636;2023-06-19T01:09:51;100492.16;;;14.78;90.10
79752;BME280;69234;47.446;21.636;2023-06-19T01:10:31;100495.72;;;14.79;90.45
79752;BME280;69234;47.446;21.636;2023-06-19T01:11:06;100493.19;;;14.77;90.47
79752;BME280;69234;47.446;21.636;2023-06-19T01:11:46;100488.09;;;14.74;90.09
79752;BME280;69234;47.446;21.636;2023-06-19T01:12:29;100484.38;;;14.75;89.95
79752;BME280;69234;47.446;21.636;2023-06-19T01:14:09;100492.16;;;14.78;90.17
79752;BME280;69234;47.446;21.636;2023-06-19T01:14:54;100483.69;;;14.73;90.39
79752;BME280;69234;47.446;21.636;2023-06-19T01:15:28;100488.09;;;14.74;90.92
79752;BME280;69234;47.446;21.636;2023-06-19T01:16:02;100485.38;;;14.74;90.46
79752;BME280;69234;47.446;21.636;2023-06-19T01:16:34;100484.00;;;14.70;90.49
79752;BME280;69234;47.446;21.636;2023-06-19T01:17:06;100486.22;;;14.74;89.50
79752;BME280;69234;47.446;21.636;2023-06-19T01:17:37;100483.44;;;14.66;89.58
79752;BME280;69234;47.446;21.636;2023-06-19T01:18:09;100492.09;;;14.70;89.73
79752;BME280;69234;47.446;21.636;2023-06-19T01:18:43;100483.22;;;14.60;90.70
79752;BME280;69234;47.446;21.636;2023-06-19T01:19:19;100483.38;;;14.58;90.21
79752;BME280;69234;47.446;21.636;2023-06-19T01:19:58;100484.22;;;14.59;90.76
79752;BME280;69234;47.446;21.636;2023-06-19T01:20:30;100498.13;;;14.64;90.95
79752;BME280;69234;47.446;21.636;2023-06-19T01:21:16;100496.97;;;14.66;89.91
79752;BME280;69234;47.446;21.636;2023-06-19T01:21:48;100500.16;;;14.62;90.32
79752;BME280;69234;47.446;21.636;2023-06-19T01:22:30;100498.44;;;14.61;90.72
79752;BME280;69234;47.446;21.636;2023-06-19T01:23:10;100498.59;;;14.59;89.94
79752;BME280;69234;47.446;21.636;2023-06-19T01:23:43;100488.22;;;14.55;90.63
79752;BME280;69234;47.446;21.636;2023-06-19T01:24:14;100500.44;;;14.59;90.80
79752;BME280;69234;47.446;21.636;2023-06-19T01:24:45;100499.75;;;14.57;90.88
79752;BME280;69234;47.446;21.636;2023-06-19T01:25:16;100505.56;;;14.62;91.04
79752;BME280;69234;47.446;21.636;2023-06-19T01:25:47;100492.66;;;14.56;90.78
79752;BME280;69234;47.446;21.636;2023-06-19T01:26:22;100491.94;;;14.54;89.96
79752;BME280;69234;47.446;21.636;2023-06-19T01:26:57;100493.78;;;14.53;90.05
79752;BME280;69234;47.446;21.636;2023-06-19T01:27:28;100487.69;;;14.51;89.87
79752;BME280;69234;47.446;21.636;2023-06-19T01:28:07;100498.34;;;14.53;89.90
79752;BME280;69234;47.446;21.636;2023-06-19T01:28:42;100490.69;;;14.48;90.20
79752;BME280;69234;47.446;21.636;2023-06-19T01:29:16;100503.06;;;14.50;90.36
79752;BME280;69234;47.446;21.636;2023-06-19T01:29:50;100483.19;;;14.42;90.64
79752;BME280;69234;47.446;21.636;2023-06-19T01:30:22;100482.47;;;14.40;90.91
79752;BME280;69234;47.446;21.636;2023-06-19T01:30:55;100491.00;;;14.45;90.17
79752;BME280;69234;47.446;21.636;2023-06-19T01:31:37;100491.00;;;14.45;91.57
79752;BME280;69234;47.446;21.636;2023-06-19T01:32:18;100482.63;;;14.38;91.06
79752;BME280;69234;47.446;21.636;2023-06-19T01:32:58;100492.69;;;14.46;90.03
79752;BME280;69234;47.446;21.636;2023-06-19T01:33:32;100489.25;;;14.44;91.19
79752;BME280;69234;47.446;21.636;2023-06-19T01:34:06;100496.09;;;14.48;89.95
79752;BME280;69234;47.446;21.636;2023-06-19T01:34:40;100488.59;;;14.42;90.36
79752;BME280;69234;47.446;21.636;2023-06-19T01:35:13;100498.25;;;14.44;91.32
79752;BME280;69234;47.446;21.636;2023-06-19T01:35:46;100489.44;;;14.42;91.05
79752;BME280;69234;47.446;21.636;2023-06-19T01:36:19;100492.13;;;14.42;90.76
79752;BME280;69234;47.446;21.636;2023-06-19T01:36:52;100494.00;;;14.42;91.11
79752;BME280;69234;47.446;21.636;2023-06-19T01:37:28;100494.84;;;14.42;90.51
79752;BME280;69234;47.446;21.636;2023-06-19T01:38:01;100476.16;;;14.31;91.11
79752;BME280;69234;47.446;21.636;2023-06-19T01:38:32;100499.22;;;14.43;91.29
79752;BME280;69234;47.446;21.636;2023-06-19T01:39:08;100500.25;;;14.42;90.71
79752;BME280;69234;47.446;21.636;2023-06-19T01:39:40;100499.53;;;14.40;91.04
79752;BME280;69234;47.446;21.636;2023-06-19T01:40:17;100495.31;;;14.38;90.89
79752;BME280;69234;47.446;21.636;2023-06-19T01:40:55;100492.06;;;14.34;91.38
79752;BME280;69234;47.446;21.636;2023-06-19T01:41:28;100504.25;;;14.38;90.56
79752;BME280;69234;47.446;21.636;2023-06-19T01:42:01;100498.69;;;14.40;90.76
79752;BME280;69234;47.446;21.636;2023-06-19T01:42:38;100491.19;;;14.34;90.22
79752;BME280;69234;47.446;21.636;2023-06-19T01:43:11;100493.88;;;14.34;90.88
79752;BME280;69234;47.446;21.636;2023-06-19T01:43:43;100485.41;;;14.28;90.73
79752;BME280;69234;47.446;21.636;2023-06-19T01:44:16;100492.34;;;14.31;91.57
79752;BME280;69234;47.446;21.636;2023-06-19T01:44:51;100486.97;;;14.31;90.66
79752;BME280;69234;47.446;21.636;2023-06-19T01:45:22;100499.16;;;14.35;91.37
79752;BME280;69234;47.446;21.636;2023-06-19T01:45:53;100484.56;;;14.28;90.39
79752;BME280;69234;47.446;21.636;2023-06-19T01:46:24;100494.75;;;14.34;90.61
79752;BME280;69234;47.446;21.636;2023-06-19T01:46:55;100495.75;;;14.33;91.24
79752;BME280;69234;47.446;21.636;2023-06-19T01:47:26;100483.84;;;14.26;90.86
79752;BME280;69234;47.446;21.636;2023-06-19T01:47:57;100498.44;;;14.33;90.06
79752;BME280;69234;47.446;21.636;2023-06-19T01:48:29;100485.00;;;14.23;91.46
79752;BME280;69234;47.446;21.636;2023-06-19T01:49:00;100480.47;;;14.24;91.44
79752;BME280;69234;47.446;21.636;2023-06-19T01:49:31;100492.97;;;14.25;90.91
79752;BME280;69234;47.446;21.636;2023-06-19T01:50:02;100492.13;;;14.24;90.30
79752;BME280;69234;47.446;21.636;2023-06-19T01:50:34;100497.22;;;14.27;90.27
79752;BME280;69234;47.446;21.636;2023-06-19T01:51:05;100502.63;;;14.27;90.61
79752;BME280;69234;47.446;21.636;2023-06-19T01:51:36;100490.41;;;14.23;91.52
79752;BME280;69234;47.446;21.636;2023-06-19T01:52:07;100503.47;;;14.28;90.70
79752;BME280;69234;47.446;21.636;2023-06-19T01:52:39;100485.44;;;14.19;91.43
79752;BME280;69234;47.446;21.636;2023-06-19T01:53:10;100499.38;;;14.24;90.49
79752;BME280;69234;47.446;21.636;2023-06-19T01:53:41;100487.16;;;14.20;90.21
79752;BME280;69234;47.446;21.636;2023-06-19T01:54:12;100490.84;;;14.19;90.60
79752;BME280;69234;47.446;21.636;2023-06-19T01:54:43;100510.03;;;14.25;90.59
79752;BME280;69234;47.446;21.636;2023-06-19T01:55:14;100495.41;;;14.18;90.38
79752;BME280;69234;47.446;21.636;2023-06-19T01:55:45;100503.91;;;14.23;90.58
79752;BME280;69234;47.446;21.636;2023-06-19T01:56:16;100501.53;;;14.20;90.82
79752;BME280;69234;47.446;21.636;2023-06-19T01:56:47;100509.47;;;14.22;91.63
79752;BME280;69234;47.446;21.636;2023-06-19T01:57:19;100510.19;;;14.24;90.83
79752;BME280;69234;47.446;21.636;2023-06-19T01:57:51;100495.88;;;14.14;90.49
79752;BME280;69234;47.446;21.636;2023-06-19T01:58:22;100506.06;;;14.20;91.44
79752;BME280;69234;47.446;21.636;2023-06-19T01:58:54;100502.69;;;14.18;91.43
79752;BME280;69234;47.446;21.636;2023-06-19T01:59:26;100513.03;;;14.22;91.50
79752;BME280;69234;47.446;21.636;2023-06-19T01:59:57;100506.06;;;14.20;91.94
79752;BME280;69234;47.446;21.636;2023-06-19T02:00:28;100512.34;;;14.20;91.16
79752;BME280;69234;47.446;21.636;2023-06-19T02:01:02;100492.34;;;14.13;91.36
79752;BME280;69234;47.446;21.636;2023-06-19T02:01:33;100496.44;;;14.17;90.52
79752;BME280;69234;47.446;21.636;2023-06-19T02:02:05;100497.28;;;14.18;91.52
79752;BME280;69234;47.446;21.636;2023-06-19T02:02:37;100493.84;;;14.16;91.56
79752;BME280;69234;47.446;21.636;2023-06-19T02:03:09;100499.97;;;14.18;91.49
79752;BME280;69234;47.446;21.636;2023-06-19T02:03:40;100497.56;;;14.15;90.96
79752;BME280;69234;47.446;21.636;2023-06-19T02:04:11;100504.53;;;14.17;91.15
79752;BME280;69234;47.446;21.636;2023-06-19T02:04:43;100488.75;;;14.13;91.05
79752;BME280;69234;47.446;21.636;2023-06-19T02:05:14;100502.69;;;14.18;91.35
79752;BME280;69234;47.446;21.636;2023-06-19T02:05:45;100505.50;;;14.16;90.88
79752;BME280;69234;47.446;21.636;2023-06-19T02:06:16;100501.28;;;14.14;91.11
79752;BME280;69234;47.446;21.636;2023-06-19T02:06:47;100487.22;;;14.10;91.09
79752;BME280;69234;47.446;21.636;2023-06-19T02:07:19;100499.56;;;14.13;92.00
79752;BME280;69234;47.446;21.636;2023-06-19T02:07:52;100505.69;;;14.15;91.06
79752;BME280;69234;47.446;21.636;2023-06-19T02:08:23;100505.97;;;14.12;90.95
79752;BME280;69234;47.446;21.636;2023-06-19T02:08:53;100491.53;;;14.03;91.09
79752;BME280;69234;47.446;21.636;2023-06-19T02:09:24;100489.81;;;14.02;91.48
79752;BME280;69234;47.446;21.636;2023-06-19T02:09:56;100494.22;;;14.03;92.09
79752;BME280;69234;47.446;21.636;2023-06-19T02:10:27;100485.16;;;13.94;91.16
79752;BME280;69234;47.446;21.636;2023-06-19T02:11:00;100487.03;;;13.94;91.96
79752;BME280;69234;47.446;21.636;2023-06-19T02:11:31;100505.88;;;14.03;91.52
79752;BME280;69234;47.446;21.636;2023-06-19T02:12:02;100501.63;;;14.01;92.11
79752;BME280;69234;47.446;21.636;2023-06-19T02:12:33;100489.97;;;14.00;91.84
79752;BME280;69234;47.446;21.636;2023-06-19T02:13:04;100505.03;;;14.03;92.12
79752;BME280;69234;47.446;21.636;2023-06-19T02:13:35;100503.03;;;14.05;91.68
79752;BME280;69234;47.446;21.636;2023-06-19T02:14:06;100484.88;;;13.97;92.06
79752;BME280;69234;47.446;21.636;2023-06-19T02:14:37;100495.09;;;14.03;91.83
79752;BME280;69234;47.446;21.636;2023-06-19T02:15:09;100496.78;;;14.04;91.04
79752;BME280;69234;47.446;21.636;2023-06-19T02:15:40;100491.53;;;14.03;91.33
79752;BME280;69234;47.446;21.636;2023-06-19T02:16:11;100497.31;;;14.08;91.17
79752;BME280;69234;47.446;21.636;2023-06-19T02:16:42;100502.72;;;14.08;91.47
79752;BME280;69234;47.446;21.636;2023-06-19T02:17:14;100488.97;;;14.01;91.13
79752;BME280;69234;47.446;21.636;2023-06-19T02:17:45;100499.31;;;14.06;91.38
79752;BME280;69234;47.446;21.636;2023-06-19T02:18:16;100494.78;;;14.07;90.64
79752;BME280;69234;47.446;21.636;2023-06-19T02:18:46;100493.91;;;14.06;91.40
79752;BME280;69234;47.446;21.636;2023-06-19T02:19:18;100488.97;;;14.01;91.03
79752;BME280;69234;47.446;21.636;2023-06-19T02:19:49;100498.47;;;14.06;91.42
79752;BME280;69234;47.446;21.636;2023-06-19T02:20:23;100500.19;;;14.07;90.97
79752;BME280;69234;47.446;21.636;2023-06-19T02:20:55;100493.34;;;14.02;92.10
79752;BME280;69234;47.446;21.636;2023-06-19T02:21:27;100501.59;;;14.11;91.80
79752;BME280;69234;47.446;21.636;2023-06-19T02:21:59;100492.38;;;14.03;91.71
79752;BME280;69234;47.446;21.636;2023-06-19T02:22:30;100503.03;;;14.05;91.06
79752;BME280;69234;47.446;21.636;2023-06-19T02:23:01;100488.28;;;13.99;90.77
79752;BME280;69234;47.446;21.636;2023-06-19T02:23:34;100493.53;;;14.01;91.37
79752;BME280;69234;47.446;21.636;2023-06-19T02:24:05;100491.38;;;14.04;91.81
79752;BME280;69234;47.446;21.636;2023-06-19T02:24:36;100500.19;;;14.07;90.89
79752;BME280;69234;47.446;21.636;2023-06-19T02:25:10;100502.16;;;14.04;90.88
79752;BME280;69234;47.446;21.636;2023-06-19T02:25:41;100501.16;;;14.06;90.89
79752;BME280;69234;47.446;21.636;2023-06-19T02:26:13;100501.03;;;14.07;91.35
79752;BME280;69234;47.446;21.636;2023-06-19T02:26:44;100498.63;;;14.04;91.84
79752;BME280;69234;47.446;21.636;2023-06-19T02:27:15;100496.94;;;14.03;91.70
79752;BME280;69234;47.446;21.636;2023-06-19T02:27:46;100508.59;;;14.03;91.28
79752;BME280;69234;47.446;21.636;2023-06-19T02:28:18;100501.78;;;13.99;91.37
79752;BME280;69234;47.446;21.636;2023-06-19T02:28:49;100500.06;;;13.98;90.68
79752;BME280;69234;47.446;21.636;2023-06-19T02:29:20;100501.91;;;13.98;91.40
79752;BME280;69234;47.446;21.636;2023-06-19T02:29:52;100497.66;;;13.95;91.56
79752;BME280;69234;47.446;21.636;2023-06-19T02:30:23;100495.97;;;13.94;91.56
79752;BME280;69234;47.446;21.636;2023-06-19T02:30:54;100503.06;;;13.95;91.65
79752;BME280;69234;47.446;21.636;2023-06-19T02:31:25;100500.22;;;13.97;91.02
79752;BME280;69234;47.446;21.636;2023-06-19T02:31:56;100490.31;;;13.88;92.16
79752;BME280;69234;47.446;21.636;2023-06-19T02:32:27;100503.34;;;13.92;92.17
79752;BME280;69234;47.446;21.636;2023-06-19T02:32:59;100503.34;;;13.92;92.35
79752;BME280;69234;47.446;21.636;2023-06-19T02:33:30;100490.19;;;13.89;91.83
79752;BME280;69234;47.446;21.636;2023-06-19T02:34:03;100505.94;;;13.94;91.76
79752;BME280;69234;47.446;21.636;2023-06-19T02:34:33;100494.56;;;13.90;92.06
79752;BME280;69234;47.446;21.636;2023-06-19T02:35:09;100499.13;;;13.90;91.24
79752;BME280;69234;47.446;21.636;2023-06-19T02:35:40;100507.06;;;13.91;91.19
79752;BME280;69234;47.446;21.636;2023-06-19T02:36:12;100496.72;;;13.87;91.45
79752;BME280;69234;47.446;21.636;2023-06-19T02:36:44;100494.31;;;13.84;91.71
79752;BME280;69234;47.446;21.636;2023-06-19T02:37:17;100501.66;;;13.91;92.10
79752;BME280;69234;47.446;21.636;2023-06-19T02:37:48;100487.91;;;13.85;91.81
79752;BME280;69234;47.446;21.636;2023-06-19T02:38:19;100499.25;;;13.88;91.11
79752;BME280;69234;47.446;21.636;2023-06-19T02:38:53;100501.13;;;13.88;92.04
79752;BME280;69234;47.446;21.636;2023-06-19T02:39:27;100503.69;;;13.89;90.92
79752;BME280;69234;47.446;21.636;2023-06-19T02:39:58;100495.31;;;13.83;91.74
79752;BME280;69234;47.446;21.636;2023-06-19T02:40:29;100507.06;;;13.91;91.05
79752;BME280;69234;47.446;21.636;2023-06-19T02:40:59;100496.84;;;13.85;92.15
79752;BME280;69234;47.446;21.636;2023-06-19T02:41:34;100493.59;;;13.82;92.58
79752;BME280;69234;47.446;21.636;2023-06-19T02:42:05;100492.47;;;13.84;92.04
79752;BME280;69234;47.446;21.636;2023-06-19T02:42:36;100507.38;;;13.88;91.48
79752;BME280;69234;47.446;21.636;2023-06-19T02:43:07;100497.00;;;13.84;91.33
79752;BME280;69234;47.446;21.636;2023-06-19T02:43:40;100509.09;;;13.89;91.49
79752;BME280;69234;47.446;21.636;2023-06-19T02:44:12;100509.09;;;13.89;91.74
79752;BME280;69234;47.446;21.636;2023-06-19T02:44:44;100501.28;;;13.86;91.94
79752;BME280;69234;47.446;21.636;2023-06-19T02:45:16;100507.38;;;13.88;91.23
79752;BME280;69234;47.446;21.636;2023-06-19T02:45:47;100504.66;;;13.88;91.25
79752;BME280;69234;47.446;21.636;2023-06-19T02:46:18;100499.00;;;13.82;91.96
79752;BME280;69234;47.446;21.636;2023-06-19T02:46:49;100502.97;;;13.87;91.48
79752;BME280;69234;47.446;21.636;2023-06-19T02:47:20;100509.09;;;13.89;91.11
79752;BME280;69234;47.446;21.636;2023-06-19T02:47:51;100510.22;;;13.87;91.24
79752;BME280;69234;47.446;21.636;2023-06-19T02:48:23;100496.84;;;13.85;91.19
79752;BME280;69234;47.446;21.636;2023-06-19T02:48:53;100508.06;;;13.90;91.40
79752;BME280;69234;47.446;21.636;2023-06-19T02:49:26;100510.47;;;13.93;92.16
79752;BME280;69234;47.446;21.636;2023-06-19T02:50:02;100504.53;;;13.90;91.08